createdAt,value
2019-02-15T00:02:04.770Z,0.97
2019-02-15T00:04:54.656Z,0.93
2019-02-15T00:07:45.621Z,0.88
2019-02-15T00:10:35.503Z,0.96
2019-02-15T00:13:42.026Z,1.02
2019-02-15T00:16:31.713Z,0.94
2019-02-15T00:19:27.590Z,0.88
2019-02-15T00:22:17.516Z,0.67
2019-02-15T00:25:06.712Z,0.57
2019-02-15T00:27:56.555Z,0.41
2019-02-15T00:30:45.917Z,0.54
2019-02-15T00:33:35.847Z,0.65
2019-02-15T00:36:25.349Z,0.71
2019-02-15T00:39:15.014Z,0.78
2019-02-15T00:42:04.471Z,0.73
2019-02-15T00:44:54.122Z,0.83
2019-02-15T00:47:48.597Z,0.91
2019-02-15T00:51:00.187Z,0.64
2019-02-15T00:54:03.814Z,0.68
2019-02-15T00:57:02.484Z,0.74
2019-02-15T01:00:11.184Z,0.76
2019-02-15T01:03:18.151Z,0.68
2019-02-15T01:06:35.836Z,0.63
2019-02-15T01:09:43.854Z,0.66
2019-02-15T01:12:58.006Z,0.60
2019-02-15T01:15:47.489Z,0.56
2019-02-15T01:18:37.662Z,0.50
2019-02-15T01:21:27.035Z,0.38
2019-02-15T01:24:16.303Z,0.45
2019-02-15T01:27:17.689Z,0.54
2019-02-15T01:30:26.449Z,0.46
2019-02-15T01:33:32.950Z,0.35
2019-02-15T01:36:50.353Z,0.23
2019-02-15T01:39:57.306Z,0.21
2019-02-15T01:42:59.607Z,0.16
2019-02-15T01:45:54.845Z,0.23
2019-02-15T01:48:44.245Z,0.36
2019-02-15T01:51:33.619Z,0.37
2019-02-15T01:54:22.920Z,0.42
2019-02-15T01:57:14.735Z,0.44
2019-02-15T02:00:04.195Z,0.45
2019-02-15T02:02:53.697Z,0.37
2019-02-15T02:05:43.137Z,0.42
2019-02-15T02:08:33.315Z,0.37
2019-02-15T02:11:22.681Z,0.39
2019-02-15T02:14:12.487Z,0.39
2019-02-15T02:17:01.794Z,0.53
2019-02-15T02:19:51.544Z,0.56
2019-02-15T02:22:40.798Z,0.60
2019-02-15T02:25:30.641Z,0.42
2019-02-15T02:28:20.160Z,0.44
2019-02-15T02:31:09.389Z,0.50
2019-02-15T02:34:01.457Z,0.33
2019-02-15T02:36:55.237Z,0.40
2019-02-15T02:39:44.543Z,0.42
2019-02-15T02:42:33.768Z,0.43
2019-02-15T02:45:23.288Z,0.29
2019-02-15T02:48:12.782Z,0.33
2019-02-15T02:51:03.014Z,0.45
2019-02-15T02:53:52.418Z,0.52
2019-02-15T02:56:41.616Z,0.38
2019-02-15T02:59:30.736Z,0.36
2019-02-15T03:02:25.703Z,0.50
2019-02-15T03:05:15.944Z,0.53
2019-02-15T03:08:05.072Z,0.55
2019-02-15T03:10:54.687Z,0.60
2019-02-15T03:13:44.117Z,0.64
2019-02-15T03:16:34.230Z,0.80
2019-02-15T03:19:23.771Z,0.79
2019-02-15T03:22:12.967Z,0.59
2019-02-15T03:25:02.413Z,0.54
2019-02-15T03:27:52.006Z,0.54
2019-02-15T03:30:41.607Z,0.57
2019-02-15T03:33:31.081Z,0.54
2019-02-15T03:36:37.913Z,0.49
2019-02-15T03:39:35.384Z,0.43
2019-02-15T03:42:25.822Z,0.29
2019-02-15T03:45:16.991Z,0.23
2019-02-15T03:48:05.863Z,0.34
2019-02-15T03:50:55.384Z,0.34
2019-02-15T03:53:44.911Z,0.19
2019-02-15T03:56:34.087Z,0.21
2019-02-15T03:59:23.036Z,0.28
2019-02-15T04:02:12.525Z,0.35
2019-02-15T04:05:02.106Z,0.23
2019-02-15T04:07:51.533Z,0.17
2019-02-15T04:10:41.108Z,0.21
2019-02-15T04:13:30.930Z,0.25
2019-02-15T04:16:20.321Z,0.20
2019-02-15T04:19:10.320Z,-0.26
2019-02-15T04:21:59.496Z,0.19
2019-02-15T04:24:48.657Z,0.16
2019-02-15T04:27:38.396Z,0.14
2019-02-15T04:30:28.011Z,0.09
2019-02-15T04:33:17.183Z,0.06
2019-02-15T04:36:06.893Z,0.03
2019-02-15T04:38:56.370Z,0.03
2019-02-15T04:41:45.854Z,0.01
2019-02-15T04:44:42.587Z,0.00
2019-02-15T04:47:26.974Z,-0.01
2019-02-15T04:50:16.927Z,-0.03
2019-02-15T04:53:06.094Z,-0.05
2019-02-15T04:55:55.308Z,-0.09
2019-02-15T04:58:44.872Z,-0.13
2019-02-15T05:01:34.933Z,-0.10
2019-02-15T05:04:24.340Z,-0.09
2019-02-15T05:07:16.456Z,0.02
2019-02-15T05:10:06.544Z,0.00
2019-02-15T05:12:55.984Z,-0.04
2019-02-15T05:15:45.875Z,-0.06
2019-02-15T05:18:35.032Z,-0.02
2019-02-15T05:21:24.403Z,-0.08
2019-02-15T05:24:14.318Z,-0.10
2019-02-15T05:27:03.523Z,-0.13
2019-02-15T05:29:53.295Z,-0.20
2019-02-15T05:32:42.787Z,-0.17
2019-02-15T05:35:32.527Z,-0.19
2019-02-15T05:38:22.023Z,-0.20
2019-02-15T05:41:14.253Z,-0.15
2019-02-15T05:44:04.745Z,-0.15
2019-02-15T05:46:54.289Z,-0.28
2019-02-15T05:49:43.836Z,-0.22
2019-02-15T05:52:33.654Z,-0.17
2019-02-15T05:55:23.082Z,-0.25
2019-02-15T05:58:12.976Z,-0.29
2019-02-15T06:01:02.358Z,-0.27
2019-02-15T06:03:52.016Z,-0.41
2019-02-15T06:06:41.261Z,-0.38
2019-02-15T06:09:30.810Z,-0.38
2019-02-15T06:12:20.486Z,-0.46
2019-02-15T06:15:15.318Z,-0.46
2019-02-15T06:18:01.230Z,-0.44
2019-02-15T06:20:50.612Z,-0.52
2019-02-15T06:23:40.860Z,-0.56
2019-02-15T06:26:31.786Z,-0.58
2019-02-15T06:29:20.775Z,-0.60
2019-02-15T06:32:10.314Z,-0.71
2019-02-15T06:34:59.924Z,-0.63
2019-02-15T06:37:49.492Z,-0.70
2019-02-15T06:40:39.219Z,-0.66
2019-02-15T06:43:28.719Z,-0.58
2019-02-15T06:46:17.859Z,-0.61
2019-02-15T06:49:07.468Z,-0.59
2019-02-15T06:51:57.460Z,-0.56
2019-02-15T06:54:46.851Z,-0.47
2019-02-15T06:57:36.578Z,-0.53
2019-02-15T07:00:55.553Z,-0.46
2019-02-15T07:04:16.493Z,-0.48
2019-02-15T07:07:05.981Z,-0.41
2019-02-15T07:09:55.628Z,-0.11
2019-02-15T07:12:45.219Z,-0.22
2019-02-15T07:15:35.370Z,-0.22
2019-02-15T07:18:24.808Z,-0.25
2019-02-15T07:21:14.507Z,-0.12
2019-02-15T07:24:06.267Z,-0.10
2019-02-15T07:26:55.955Z,-0.15
2019-02-15T07:29:45.452Z,0.00
2019-02-15T07:32:35.565Z,0.07
2019-02-15T07:35:24.761Z,0.14
2019-02-15T07:38:14.077Z,0.19
2019-02-15T07:41:03.363Z,0.36
2019-02-15T07:43:52.596Z,0.55
2019-02-15T07:46:41.988Z,0.56
2019-02-15T07:49:31.272Z,0.62
2019-02-15T07:52:20.510Z,0.72
2019-02-15T07:55:10.334Z,0.78
2019-02-15T07:58:00.013Z,0.83
2019-02-15T08:00:49.423Z,0.93
2019-02-15T08:03:38.876Z,1.11
2019-02-15T08:06:30.276Z,1.15
2019-02-15T08:09:19.610Z,1.32
2019-02-15T08:12:09.368Z,1.36
2019-02-15T08:14:58.863Z,1.42
2019-02-15T08:17:48.991Z,1.67
2019-02-15T08:20:38.569Z,1.81
2019-02-15T08:23:28.541Z,1.98
2019-02-15T08:26:18.130Z,2.07
2019-02-15T08:29:07.539Z,2.03
2019-02-15T08:31:56.985Z,2.13
2019-02-15T08:34:46.564Z,2.34
2019-02-15T08:37:35.855Z,2.57
2019-02-15T08:40:25.901Z,2.66
2019-02-15T08:43:17.495Z,3.05
2019-02-15T08:49:31.482Z,3.21
2019-02-15T08:52:20.875Z,3.70
2019-02-15T08:55:11.216Z,3.91
2019-02-15T08:58:00.716Z,4.15
2019-02-15T09:00:50.025Z,4.46
2019-02-15T09:03:39.839Z,4.49
2019-02-15T09:06:29.826Z,4.68
2019-02-15T09:09:18.958Z,5.16
2019-02-15T09:12:08.710Z,5.35
2019-02-15T09:14:57.946Z,5.85
2019-02-15T09:17:47.582Z,6.08
2019-02-15T09:20:37.107Z,6.56
2019-02-15T09:23:26.723Z,7.27
2019-02-15T09:26:18.256Z,7.82
2019-02-15T09:29:10.433Z,8.16
2019-02-15T09:31:59.681Z,8.32
2019-02-15T09:34:49.426Z,8.46
2019-02-15T09:37:41.910Z,8.83
2019-02-15T09:40:31.286Z,8.92
2019-02-15T09:43:20.495Z,8.82
2019-02-15T09:46:19.297Z,8.33
2019-02-15T09:49:03.375Z,8.67
2019-02-15T09:51:53.066Z,8.90
2019-02-15T09:54:42.397Z,8.94
2019-02-15T09:57:32.273Z,9.32
2019-02-15T10:00:21.392Z,9.17
2019-02-15T10:03:14.730Z,10.13
2019-02-15T10:06:04.120Z,10.65
2019-02-15T10:08:53.233Z,10.33
2019-02-15T10:11:42.355Z,9.70
2019-02-15T10:14:32.028Z,9.15
2019-02-15T10:17:21.340Z,9.89
2019-02-15T10:20:10.841Z,10.51
2019-02-15T10:23:00.139Z,10.99
2019-02-15T10:25:49.814Z,11.18
2019-02-15T10:28:38.954Z,11.61
2019-02-15T10:31:30.743Z,11.48
2019-02-15T10:34:20.067Z,10.95
2019-02-15T10:37:10.317Z,11.59
2019-02-15T10:39:59.634Z,9.26
2019-02-15T10:42:50.151Z,10.56
2019-02-15T10:45:39.415Z,12.30
2019-02-15T10:48:28.859Z,11.98
2019-02-15T10:51:18.516Z,13.00
2019-02-15T10:54:07.986Z,13.20
2019-02-15T10:56:58.099Z,13.75
2019-02-15T10:59:47.656Z,12.93
2019-02-15T11:02:37.565Z,14.11
2019-02-15T11:05:27.814Z,13.92
2019-02-15T11:08:17.177Z,15.57
2019-02-15T11:11:06.856Z,15.05
2019-02-15T11:13:56.125Z,14.50
2019-02-15T11:16:47.489Z,12.56
2019-02-15T11:19:48.264Z,12.99
2019-02-15T11:22:38.228Z,14.86
2019-02-15T11:25:27.663Z,13.85
2019-02-15T11:28:17.163Z,14.09
2019-02-15T11:31:06.587Z,14.00
2019-02-15T11:33:55.963Z,15.25
2019-02-15T11:36:45.543Z,15.51
2019-02-15T11:39:35.346Z,16.20
2019-02-15T11:42:24.660Z,16.80
2019-02-15T11:45:16.644Z,16.06
2019-02-15T11:48:06.289Z,14.50
2019-02-15T11:50:55.494Z,14.67
2019-02-15T11:53:45.439Z,14.66
2019-02-15T11:56:35.088Z,13.87
2019-02-15T11:59:24.838Z,14.26
2019-02-15T12:02:14.314Z,14.49
2019-02-15T12:05:04.382Z,13.69
2019-02-15T12:07:53.630Z,14.13
2019-02-15T12:10:43.335Z,17.22
2019-02-15T12:13:32.730Z,18.30
2019-02-15T12:16:23.000Z,18.98
2019-02-15T12:19:14.582Z,18.78
2019-02-15T12:22:04.306Z,19.32
2019-02-15T12:24:53.497Z,20.23
2019-02-15T12:27:43.429Z,20.20
2019-02-15T12:30:32.900Z,19.36
2019-02-15T12:33:22.239Z,19.79
2019-02-15T12:36:11.560Z,18.69
2019-02-15T12:39:05.064Z,17.84
2019-02-15T12:41:54.699Z,16.97
2019-02-15T12:44:44.296Z,16.80
2019-02-15T12:47:33.504Z,15.96
2019-02-15T12:50:22.740Z,15.25
2019-02-15T12:53:12.639Z,15.20
2019-02-15T12:56:02.062Z,15.65
2019-02-15T12:58:52.010Z,15.18
2019-02-15T13:01:42.259Z,14.38
2019-02-15T13:04:31.881Z,14.95
2019-02-15T13:07:21.322Z,13.84
2019-02-15T13:10:13.104Z,14.36
2019-02-15T13:13:02.336Z,14.42
2019-02-15T13:15:51.488Z,14.55
2019-02-15T13:18:40.957Z,15.13
2019-02-15T13:21:30.562Z,15.47
2019-02-15T13:24:20.172Z,15.80
2019-02-15T13:27:09.865Z,15.68
2019-02-15T13:29:59.946Z,15.50
2019-02-15T13:32:50.016Z,15.46
2019-02-15T13:35:39.454Z,16.01
2019-02-15T13:38:29.450Z,15.91
2019-02-15T13:41:18.913Z,16.00
2019-02-15T13:44:08.598Z,16.00
2019-02-15T13:46:59.016Z,15.39
2019-02-15T13:49:48.526Z,15.04
2019-02-15T13:52:38.303Z,14.91
2019-02-15T13:55:27.921Z,14.52
2019-02-15T13:58:17.466Z,14.38
2019-02-15T14:01:07.169Z,14.41
2019-02-15T14:03:56.406Z,15.10
2019-02-15T14:06:56.753Z,15.35
2019-02-15T14:09:46.139Z,13.25
2019-02-15T14:12:35.770Z,13.07
2019-02-15T14:15:25.276Z,13.94
2019-02-15T14:18:14.984Z,14.50
2019-02-15T14:21:04.573Z,14.57
2019-02-15T14:23:53.995Z,15.16
2019-02-15T14:26:43.726Z,14.86
2019-02-15T14:29:33.267Z,14.18
2019-02-15T14:32:23.027Z,14.10
2019-02-15T14:35:12.516Z,14.11
2019-02-15T14:38:01.888Z,15.13
2019-02-15T14:40:51.602Z,14.71
2019-02-15T14:43:41.042Z,15.55
2019-02-15T14:46:30.286Z,15.92
2019-02-15T14:49:19.922Z,17.08
2019-02-15T14:52:09.358Z,18.89
2019-02-15T14:54:58.634Z,19.12
2019-02-15T14:57:48.411Z,19.91
2019-02-15T15:00:37.936Z,19.85
2019-02-15T15:03:28.466Z,19.98
2019-02-15T15:06:17.973Z,19.50
2019-02-15T15:09:07.834Z,20.35
2019-02-15T15:11:57.273Z,19.80
2019-02-15T15:14:47.143Z,20.08
2019-02-15T15:17:36.539Z,18.53
2019-02-15T15:20:26.113Z,17.16
2019-02-15T15:23:15.939Z,16.92
2019-02-15T15:26:11.548Z,16.97
2019-02-15T15:28:56.274Z,16.79
2019-02-15T15:31:45.610Z,16.98
2019-02-15T15:34:35.040Z,15.53
2019-02-15T15:37:24.810Z,14.17
2019-02-15T15:40:14.835Z,13.84
2019-02-15T15:43:04.970Z,12.96
2019-02-15T15:45:54.920Z,11.18
2019-02-15T15:48:44.425Z,10.35
2019-02-15T15:51:34.086Z,9.42
2019-02-15T15:54:23.538Z,9.39
2019-02-15T15:57:13.276Z,9.47
2019-02-15T16:00:02.602Z,9.01
2019-02-15T16:02:52.491Z,8.68
2019-02-15T16:05:41.695Z,8.61
2019-02-15T16:08:31.681Z,8.61
2019-02-15T16:11:21.244Z,8.54
2019-02-15T16:14:10.872Z,8.38
2019-02-15T16:17:00.377Z,7.97
2019-02-15T16:19:50.289Z,7.77
2019-02-15T16:22:40.155Z,7.41
2019-02-15T16:25:29.715Z,7.37
2019-02-15T16:28:19.362Z,7.39
2019-02-15T16:31:09.600Z,7.28
2019-02-15T16:33:59.075Z,7.23
2019-02-15T16:36:48.694Z,7.13
2019-02-15T16:39:38.884Z,7.02
2019-02-15T16:42:28.507Z,6.26
2019-02-15T16:45:17.999Z,6.60
2019-02-15T16:48:07.441Z,6.54
2019-02-15T16:50:57.334Z,6.59
2019-02-15T16:53:47.259Z,6.46
2019-02-15T16:56:36.458Z,6.16
2019-02-15T16:59:26.510Z,5.93
2019-02-15T17:02:16.331Z,6.03
2019-02-15T17:05:06.269Z,6.03
2019-02-15T17:07:55.642Z,6.09
2019-02-15T17:10:45.288Z,6.24
2019-02-15T17:13:34.844Z,6.18
2019-02-15T17:16:24.469Z,6.15
2019-02-15T17:19:17.425Z,6.10
2019-02-15T17:22:07.428Z,6.06
2019-02-15T17:24:57.111Z,5.75
2019-02-15T17:27:46.421Z,5.80
2019-02-15T17:30:36.897Z,5.64
2019-02-15T17:33:26.067Z,5.51
2019-02-15T17:36:15.660Z,5.64
2019-02-15T17:39:06.635Z,5.61
2019-02-15T17:41:56.224Z,5.60
2019-02-15T17:44:45.517Z,5.52
2019-02-15T17:47:35.608Z,5.04
2019-02-15T17:50:24.805Z,5.04
2019-02-15T17:53:21.829Z,5.19
2019-02-15T17:56:11.517Z,5.12
2019-02-15T17:59:02.809Z,5.35
2019-02-15T18:01:52.747Z,5.25
2019-02-15T18:04:42.643Z,5.15
2019-02-15T18:07:31.764Z,5.12
2019-02-15T18:10:20.997Z,5.01
2019-02-15T18:13:10.774Z,4.87
2019-02-15T18:16:01.133Z,4.76
2019-02-15T18:18:50.646Z,4.81
2019-02-15T18:21:39.878Z,4.81
2019-02-15T18:24:29.563Z,4.69
2019-02-15T18:27:18.805Z,4.82
2019-02-15T18:30:09.006Z,4.81
2019-02-15T18:32:58.665Z,4.70
2019-02-15T18:35:48.284Z,4.56
2019-02-15T18:38:38.075Z,4.50
2019-02-15T18:41:27.544Z,4.60
2019-02-15T18:44:16.992Z,4.61
2019-02-15T18:47:06.394Z,4.53
2019-02-15T18:49:57.243Z,4.43
2019-02-15T18:52:46.574Z,4.38
2019-02-15T18:55:36.754Z,4.28
2019-02-15T18:58:26.503Z,4.14
2019-02-15T19:01:16.594Z,4.11
2019-02-15T19:04:05.931Z,3.84
2019-02-15T19:06:55.488Z,3.64
2019-02-15T19:09:44.648Z,3.72
2019-02-15T19:12:34.330Z,3.80
2019-02-15T19:15:24.493Z,3.89
2019-02-15T19:18:13.958Z,3.88
2019-02-15T19:21:03.303Z,3.99
2019-02-15T19:23:52.667Z,4.06
2019-02-15T19:26:41.863Z,4.02
2019-02-15T19:29:31.978Z,4.03
2019-02-15T19:32:21.539Z,4.15
2019-02-15T19:35:16.910Z,3.89
2019-02-15T19:38:06.349Z,3.62
2019-02-15T19:40:55.876Z,3.38
2019-02-15T19:43:45.290Z,3.16
2019-02-15T19:46:35.005Z,3.36
2019-02-15T19:49:24.405Z,3.40
2019-02-15T19:52:14.058Z,3.36
2019-02-15T19:55:07.314Z,3.49
2019-02-15T19:57:56.773Z,3.42
2019-02-15T20:00:47.130Z,3.45
2019-02-15T20:03:36.626Z,3.55
2019-02-15T20:06:25.823Z,3.57
2019-02-15T20:09:18.869Z,3.72
2019-02-15T20:12:09.022Z,3.56
2019-02-15T20:14:58.568Z,3.48
2019-02-15T20:17:48.285Z,3.21
2019-02-15T20:20:37.752Z,2.94
2019-02-15T20:23:27.378Z,2.96
2019-02-15T20:26:16.584Z,2.92
2019-02-15T20:29:06.346Z,2.98
2019-02-15T20:31:55.973Z,3.04
2019-02-15T20:34:45.667Z,2.90
2019-02-15T20:37:34.940Z,2.89
2019-02-15T20:40:24.314Z,2.90
2019-02-15T20:43:16.316Z,2.89
2019-02-15T20:46:05.742Z,3.07
2019-02-15T20:49:04.364Z,2.73
2019-02-15T20:51:45.763Z,2.75
2019-02-15T20:54:35.647Z,2.74
2019-02-15T20:57:25.250Z,2.54
2019-02-15T21:00:17.965Z,2.59
2019-02-15T21:03:08.732Z,2.72
2019-02-15T21:05:58.008Z,2.72
2019-02-15T21:08:47.635Z,2.71
2019-02-15T21:11:37.115Z,2.75
2019-02-15T21:14:26.845Z,2.73
2019-02-15T21:17:17.150Z,2.72
2019-02-15T21:20:08.358Z,2.62
2019-02-15T21:22:57.939Z,2.69
2019-02-15T21:25:47.385Z,2.73
2019-02-15T21:28:36.555Z,2.86
2019-02-15T21:31:26.021Z,2.80
2019-02-15T21:34:15.709Z,2.79
2019-02-15T21:37:05.286Z,2.83
2019-02-15T21:39:55.288Z,2.84
2019-02-15T21:42:44.662Z,2.78
2019-02-15T21:45:34.081Z,2.71
2019-02-15T21:48:23.519Z,2.74
2019-02-15T21:51:16.803Z,2.75
2019-02-15T21:54:06.419Z,2.66
2019-02-15T21:56:56.039Z,2.62
2019-02-15T21:59:45.232Z,2.67
2019-02-15T22:02:35.249Z,2.69
2019-02-15T22:05:25.623Z,2.64
2019-02-15T22:08:14.859Z,2.55
2019-02-15T22:11:04.013Z,2.49
2019-02-15T22:13:53.439Z,2.43
2019-02-15T22:16:43.478Z,2.37
2019-02-15T22:19:32.898Z,2.27
2019-02-15T22:22:22.142Z,2.15
2019-02-15T22:25:15.993Z,2.23
2019-02-15T22:28:05.688Z,2.32
2019-02-15T22:30:55.021Z,2.16
2019-02-15T22:33:44.427Z,2.19
2019-02-15T22:36:33.684Z,2.09
2019-02-15T22:39:22.767Z,2.08
2019-02-15T22:42:12.367Z,2.07
2019-02-15T22:45:01.904Z,2.14
2019-02-15T22:47:52.074Z,2.04
2019-02-15T22:50:41.419Z,2.11
2019-02-15T22:53:31.108Z,2.17
2019-02-15T22:56:20.353Z,2.10
2019-02-15T22:59:10.276Z,2.00
2019-02-15T23:02:00.266Z,2.00
2019-02-15T23:04:49.818Z,2.07
2019-02-15T23:07:40.155Z,2.10
2019-02-15T23:10:29.829Z,2.08
2019-02-15T23:13:19.297Z,2.03
2019-02-15T23:16:08.901Z,2.09
2019-02-15T23:18:58.289Z,2.14
2019-02-15T23:21:48.077Z,2.10
2019-02-15T23:24:37.284Z,1.99
2019-02-15T23:27:27.396Z,1.94
2019-02-15T23:30:17.018Z,1.99
2019-02-15T23:33:06.206Z,2.03
2019-02-15T23:35:55.894Z,2.13
2019-02-15T23:38:45.068Z,2.05
2019-02-15T23:41:34.669Z,2.06
2019-02-15T23:44:24.117Z,2.03
2019-02-15T23:47:13.609Z,2.03
2019-02-15T23:50:03.401Z,1.98
2019-02-15T23:52:52.811Z,1.93
2019-02-15T23:55:42.424Z,1.89
2019-02-15T23:58:31.966Z,1.82
